Time,TemperatureF,DewpointF,PressureIn,WindDirection,WindDirectionDegrees,WindSpeedMPH,WindSpeedGustMPH,Humidity,HourlyPrecipIn,Conditions,Clouds,dailyrainin,SolarRadiationWatts/m^2,SoftwareType,DateUTC
2013-02-21 00:11:00,32.0,17.0,-100.00,West,277,8.0,12.0,51,-99.99,,,0.00,0.000000,,2013-02-21 07:11:00,
2013-02-21 01:11:00,32.0,18.0,-100.00,West,279,9.0,12.0,54,-99.99,,,-99.99,0.000000,,2013-02-21 08:11:00,
2013-02-21 02:11:00,33.0,17.0,-100.00,WNW,294,11.0,17.0,52,-99.99,,,0.00,0.000000,,2013-02-21 09:11:00,
2013-02-21 03:11:00,31.0,16.0,-100.00,West,279,10.0,14.0,52,-99.99,,,0.00,0.000000,,2013-02-21 10:11:00,
2013-02-21 04:11:00,32.0,15.0,-100.00,WNW,287,11.0,16.0,50,-99.99,,,0.00,0.000000,,2013-02-21 11:11:00,
2013-02-21 05:11:00,30.0,15.0,-100.00,WNW,287,8.0,11.0,52,-99.99,,,0.00,0.000000,,2013-02-21 12:11:00,
2013-02-21 06:12:00,28.0,15.0,-100.00,West,280,8.0,11.0,57,-99.99,,,0.00,0.000000,,2013-02-21 13:12:00,
2013-02-21 07:11:00,25.0,15.0,-100.00,West,266,5.0,7.0,63,-99.99,,,0.00,0.000000,,2013-02-21 14:11:00,
2013-02-21 08:12:00,22.0,13.0,-100.00,SE,132,1.0,3.0,68,-99.99,,,0.00,0.120000,,2013-02-21 15:12:00,
2013-02-21 09:12:00,26.0,16.0,-100.00,WNW,290,3.0,6.0,65,-99.99,,,0.00,87.750000,,2013-02-21 16:12:00,
2013-02-21 10:11:00,34.0,21.0,-100.00,NW,314,9.0,14.0,60,-99.99,,,0.00,264.279999,,2013-02-21 17:11:00,
2013-02-21 11:11:00,38.0,22.0,-100.00,NW,318,11.0,16.0,53,-99.99,,,0.00,422.809998,,2013-02-21 18:11:00,
2013-02-21 13:11:00,43.0,21.0,-100.00,NNW,336,10.0,16.0,41,-99.99,,,0.00,639.210022,,2013-02-21 20:11:00,
2013-02-21 14:11:00,43.0,20.0,-100.00,NNW,335,11.0,19.0,39,-99.99,,,0.00,299.959991,,2013-02-21 21:11:00,
2013-02-21 15:11:00,44.0,20.0,-100.00,NW,322,10.0,20.0,37,-99.99,,,0.00,222.449997,,2013-02-21 22:11:00,
2013-02-21 16:11:00,43.0,21.0,-100.00,NW,313,8.0,14.0,40,-99.99,,,0.00,101.580002,,2013-02-21 23:11:00,
2013-02-21 17:11:00,42.0,22.0,-100.00,NW,325,9.0,15.0,43,-99.99,,,0.00,105.639999,,2013-02-22 00:11:00,
2013-02-21 18:11:00,42.0,22.0,-100.00,NNW,327,9.0,16.0,44,-99.99,,,0.00,45.560001,,2013-02-22 01:11:00,
2013-02-21 19:11:00,40.0,21.0,-100.00,NW,319,4.0,7.0,46,-99.99,,,0.00,12.900000,,2013-02-22 02:11:00,
2013-02-21 20:11:00,38.0,21.0,-100.00,NW,309,5.0,7.0,49,-99.99,,,0.00,0.000000,,2013-02-22 03:11:00,
2013-02-21 21:11:00,39.0,22.0,-100.00,NW,311,4.0,6.0,51,-99.99,,,0.00,0.000000,,2013-02-22 04:11:00,
2013-02-21 22:12:00,37.0,22.0,-100.00,WSW,240,2.0,3.0,52,-99.99,,,0.00,0.000000,,2013-02-22 05:12:00,
2013-02-21 23:11:00,37.0,22.0,-100.00,North,358,3.0,7.0,53,-99.99,,,0.00,0.000000,,2013-02-22 06:11:00,